createdAt,value
2022-09-01T00:04:52.478Z,1010.85
2022-09-01T00:09:56.627Z,1010.81
2022-09-01T00:15:00.787Z,1010.80
2022-09-01T00:20:04.948Z,1010.81
2022-09-01T00:25:09.134Z,1010.77
2022-09-01T00:30:13.245Z,1010.77
2022-09-01T00:35:17.413Z,1010.74
2022-09-01T00:40:21.726Z,1010.70
2022-09-01T00:45:25.730Z,1010.75
2022-09-01T00:50:29.902Z,1010.77
2022-09-01T00:55:32.692Z,1010.76
2022-09-01T01:00:36.667Z,1010.71
2022-09-01T01:05:40.498Z,1010.59
2022-09-01T01:10:44.648Z,1010.55
2022-09-01T01:15:48.847Z,1010.55
2022-09-01T01:20:53.006Z,1010.52
2022-09-01T01:25:57.162Z,1010.54
2022-09-01T01:31:01.621Z,1010.48
2022-09-01T01:36:05.476Z,1010.55
2022-09-01T01:41:09.652Z,1010.57
2022-09-01T01:46:13.795Z,1010.55
2022-09-01T01:51:17.963Z,1010.64
2022-09-01T01:56:22.111Z,1010.60
2022-09-01T02:01:26.317Z,1010.68
2022-09-01T02:06:30.433Z,1010.65
2022-09-01T02:11:34.571Z,1010.66
2022-09-01T02:16:38.821Z,1010.57
2022-09-01T02:21:42.893Z,1010.58
2022-09-01T02:26:47.094Z,1010.57
2022-09-01T02:31:51.240Z,1010.60
2022-09-01T02:36:55.390Z,1010.54
2022-09-01T02:41:57.656Z,1010.58
2022-09-01T02:47:02.001Z,1010.62
2022-09-01T02:52:04.073Z,1010.67
2022-09-01T02:57:08.273Z,1010.69
2022-09-01T03:02:10.560Z,1010.66
2022-09-01T03:07:14.662Z,1010.70
2022-09-01T03:12:19.210Z,1010.67
2022-09-01T03:17:23.026Z,1010.68
2022-09-01T03:22:27.149Z,1010.75
2022-09-01T03:27:31.341Z,1010.72
2022-09-01T03:32:35.495Z,1010.70
2022-09-01T03:37:39.674Z,1010.65
2022-09-01T03:42:43.812Z,1010.74
2022-09-01T03:47:47.942Z,1010.74
2022-09-01T03:52:52.138Z,1010.72
2022-09-01T03:57:56.318Z,1010.67
2022-09-01T04:03:00.499Z,1010.66
2022-09-01T04:08:04.632Z,1010.67
2022-09-01T04:13:08.785Z,1010.62
2022-09-01T04:18:12.921Z,1010.72
2022-09-01T04:23:17.101Z,1010.72
2022-09-01T04:28:21.388Z,1010.67
2022-09-01T04:33:25.399Z,1010.68
2022-09-01T04:38:29.598Z,1010.66
2022-09-01T04:43:33.725Z,1010.62
2022-09-01T04:48:36.073Z,1010.69
2022-09-01T04:53:40.154Z,1010.79
2022-09-01T04:58:42.444Z,1010.74
2022-09-01T05:03:46.591Z,1010.74
2022-09-01T05:08:50.768Z,1010.72
2022-09-01T05:13:54.908Z,1010.76
2022-09-01T05:18:59.100Z,1010.74
2022-09-01T05:24:03.236Z,1010.77
2022-09-01T05:29:07.436Z,1010.71
2022-09-01T05:34:13.982Z,1010.95
2022-09-01T05:39:15.768Z,1010.86
2022-09-01T05:44:19.916Z,1010.89
2022-09-01T05:49:24.044Z,1010.91
2022-09-01T05:54:28.190Z,1010.88
2022-09-01T05:59:32.354Z,1010.97
2022-09-01T06:04:36.538Z,1010.92
2022-09-01T06:09:40.715Z,1010.96
2022-09-01T06:14:44.840Z,1010.97
2022-09-01T06:19:49.056Z,1010.98
2022-09-01T06:24:55.687Z,1010.99
2022-09-01T06:29:57.397Z,1011.09
2022-09-01T06:40:05.675Z,1011.08
2022-09-01T06:45:09.838Z,1011.11
2022-09-01T06:50:12.178Z,1011.11
2022-09-01T06:55:16.348Z,1011.12
2022-09-01T07:00:20.419Z,1011.19
2022-09-01T07:10:28.733Z,1011.16
2022-09-01T07:21:02.366Z,1011.18
2022-09-01T07:26:00.403Z,1011.17
2022-09-01T07:30:48.628Z,1011.22
2022-09-01T07:45:58.647Z,1011.16
2022-09-01T07:56:06.150Z,1011.15
2022-09-01T08:01:10.312Z,1011.12
2022-09-01T08:06:14.482Z,1011.10
2022-09-01T08:11:25.233Z,1011.08
2022-09-01T08:16:22.818Z,1011.09
2022-09-01T08:21:26.984Z,1011.16
2022-09-01T08:26:31.113Z,1011.14
2022-09-01T08:31:35.336Z,1011.14
2022-09-01T08:36:40.603Z,1011.20
2022-09-01T08:41:46.785Z,1011.20
2022-09-01T08:46:44.083Z,1011.17
2022-09-01T08:51:48.157Z,1011.18
2022-09-01T08:56:50.438Z,1011.12
2022-09-01T09:01:54.839Z,1011.06
2022-09-01T09:06:58.703Z,1011.11
2022-09-01T09:12:03.590Z,1011.05
2022-09-01T09:22:11.433Z,1010.99
2022-09-01T09:27:16.371Z,1010.96
2022-09-01T09:32:24.011Z,1010.93
2022-09-01T09:37:23.678Z,1010.77
2022-09-01T09:42:33.986Z,1010.79
2022-09-01T09:47:43.063Z,1010.84
2022-09-01T09:52:36.160Z,1010.71
2022-09-01T09:57:40.300Z,1010.68
2022-09-01T10:02:44.513Z,1010.62
2022-09-01T10:07:48.627Z,1010.48
2022-09-01T10:12:52.805Z,1010.45
2022-09-01T10:18:13.954Z,1010.31
2022-09-01T10:23:01.102Z,1010.36
2022-09-01T10:28:05.296Z,1010.34
2022-09-01T10:33:19.077Z,1010.28
2022-09-01T10:38:13.733Z,1010.21
2022-09-01T10:43:17.741Z,1010.20
2022-09-01T10:48:30.284Z,1010.18
2022-09-01T10:53:26.911Z,1010.13
2022-09-01T11:03:34.111Z,1010.09
2022-09-01T11:18:45.035Z,1009.94
2022-09-01T11:23:49.106Z,1009.89
2022-09-01T11:28:53.310Z,1009.97
2022-09-01T11:33:57.455Z,1010.05
2022-09-01T11:39:01.620Z,1009.99
2022-09-01T11:44:05.769Z,1009.97
2022-09-01T11:49:09.911Z,1009.89
2022-09-01T11:54:14.064Z,1009.95
2022-09-01T11:59:16.342Z,1009.85
2022-09-01T12:04:27.520Z,1009.73
2022-09-01T12:09:38.687Z,1009.71
2022-09-01T12:15:05.311Z,1009.64
2022-09-01T12:20:01.018Z,1009.52
2022-09-01T12:25:12.188Z,1009.47
2022-09-01T12:30:23.401Z,1009.52
2022-09-01T12:35:25.626Z,1009.48
2022-09-01T12:40:30.545Z,1009.47
2022-09-01T12:45:34.297Z,1009.41
2022-09-01T12:50:38.084Z,1009.32
2022-09-01T12:55:48.645Z,1009.18
2022-09-01T13:00:46.413Z,1009.29
2022-09-01T13:05:51.042Z,1009.31
2022-09-01T13:10:54.695Z,1009.10
2022-09-01T13:15:58.926Z,1009.05
2022-09-01T13:21:03.049Z,1009.03
2022-09-01T13:26:07.195Z,1009.05
2022-09-01T13:31:33.947Z,1009.03
2022-09-01T13:36:44.422Z,1008.95
2022-09-01T13:41:19.862Z,1008.92
2022-09-01T13:46:23.892Z,1008.86
2022-09-01T13:51:28.014Z,1008.73
2022-09-01T13:56:32.214Z,1008.75
2022-09-01T14:01:36.361Z,1008.59
2022-09-01T14:06:40.514Z,1008.68
2022-09-01T14:11:44.649Z,1008.66
2022-09-01T14:16:48.999Z,1008.65
2022-09-01T14:21:51.118Z,1008.54
2022-09-01T14:26:55.221Z,1008.59
2022-09-01T14:31:59.450Z,1008.49
2022-09-01T14:37:03.549Z,1008.50
2022-09-01T14:42:07.716Z,1008.45
2022-09-01T14:47:12.500Z,1008.52
2022-09-01T14:52:16.046Z,1008.40
2022-09-01T14:57:38.036Z,1008.40
2022-09-01T15:02:24.566Z,1008.32
2022-09-01T15:07:28.509Z,1008.24
2022-09-01T15:12:32.670Z,1008.18
2022-09-01T15:17:36.822Z,1008.28
2022-09-01T15:22:41.024Z,1008.19
2022-09-01T15:27:45.187Z,1008.07
2022-09-01T15:32:49.335Z,1008.12
2022-09-01T15:37:53.465Z,1008.16
2022-09-01T15:43:00.003Z,1008.02
2022-09-01T15:48:01.777Z,1008.10
2022-09-01T15:53:05.945Z,1007.99
2022-09-01T15:58:10.126Z,1008.04
2022-09-01T16:03:14.314Z,1007.94
2022-09-01T16:08:16.529Z,1007.93
2022-09-01T16:13:20.681Z,1007.89
2022-09-01T16:18:23.088Z,1007.90
2022-09-01T16:23:27.119Z,1007.81
2022-09-01T16:28:29.411Z,1007.86
2022-09-01T16:33:33.640Z,1007.78
2022-09-01T16:38:37.713Z,1007.74
2022-09-01T16:43:41.877Z,1007.74
2022-09-01T16:48:46.041Z,1007.80
2022-09-01T16:53:50.189Z,1007.76
2022-09-01T16:58:52.473Z,1007.77
2022-09-01T17:03:56.630Z,1007.79
2022-09-01T17:09:00.782Z,1007.76
2022-09-01T17:14:04.936Z,1007.71
2022-09-01T17:19:09.122Z,1007.77
2022-09-01T17:24:13.246Z,1007.78
2022-09-01T17:29:17.444Z,1007.86
2022-09-01T17:34:21.553Z,1007.84
2022-09-01T17:39:25.703Z,1007.79
2022-09-01T17:44:30.028Z,1007.85
2022-09-01T17:49:34.044Z,1007.85
2022-09-01T17:54:38.226Z,1007.84
2022-09-01T17:59:42.346Z,1007.76
2022-09-01T18:04:46.491Z,1007.80
2022-09-01T18:09:50.688Z,1007.80
2022-09-01T18:14:52.955Z,1007.82
2022-09-01T18:19:57.098Z,1007.92
2022-09-01T18:24:59.400Z,1007.94
2022-09-01T18:30:03.498Z,1007.88
2022-09-01T18:35:07.695Z,1008.03
2022-09-01T18:40:09.988Z,1008.07
2022-09-01T18:45:14.096Z,1008.20
2022-09-01T18:50:18.259Z,1008.19
2022-09-01T18:55:22.449Z,1008.18
2022-09-01T19:00:30.558Z,1008.30
2022-09-01T19:05:33.374Z,1008.30
2022-09-01T19:10:34.924Z,1008.26
2022-09-01T19:15:39.111Z,1008.34
2022-09-01T19:20:43.228Z,1008.39
2022-09-01T19:25:47.380Z,1008.46
2022-09-01T19:30:51.630Z,1008.45
2022-09-01T19:35:55.716Z,1008.44
2022-09-01T19:40:59.898Z,1008.57
2022-09-01T19:46:04.072Z,1008.55
2022-09-01T19:51:08.198Z,1008.62
2022-09-01T19:56:13.217Z,1008.60
2022-09-01T20:01:16.646Z,1008.59
2022-09-01T20:06:20.725Z,1008.59
2022-09-01T20:11:25.174Z,1008.57
2022-09-01T20:16:29.169Z,1008.52
2022-09-01T20:21:33.128Z,1008.56
2022-09-01T20:26:35.440Z,1008.54
2022-09-01T20:31:39.542Z,1008.58
2022-09-01T20:36:41.843Z,1008.59
2022-09-01T20:41:46.027Z,1008.55
2022-09-01T20:46:50.152Z,1008.48
2022-09-01T20:51:54.301Z,1008.54
2022-09-01T20:56:58.516Z,1008.47
2022-09-01T21:02:02.744Z,1008.51
2022-09-01T21:07:06.791Z,1008.52
2022-09-01T21:12:10.954Z,1008.60
2022-09-01T21:17:15.105Z,1008.59
2022-09-01T21:22:22.213Z,1008.59
2022-09-01T21:27:23.464Z,1008.57
2022-09-01T21:32:27.594Z,1008.52
2022-09-01T21:37:31.758Z,1008.52
2022-09-01T21:42:35.920Z,1008.53
2022-09-01T21:47:40.103Z,1008.52
2022-09-01T21:52:44.243Z,1008.44
2022-09-01T21:57:48.386Z,1008.43
2022-09-01T22:02:52.633Z,1008.48
2022-09-01T22:07:56.732Z,1008.41
2022-09-01T22:13:00.913Z,1008.48
2022-09-01T22:18:05.052Z,1008.42
2022-09-01T22:23:07.301Z,1008.40
2022-09-01T22:28:11.491Z,1008.48
2022-09-01T22:33:15.640Z,1008.37
2022-09-01T22:38:19.785Z,1008.38
2022-09-01T22:43:23.942Z,1008.49
2022-09-01T22:48:28.090Z,1008.49
2022-09-01T22:53:32.302Z,1008.43
2022-09-01T22:58:36.446Z,1008.40
2022-09-01T23:03:40.596Z,1008.45
2022-09-01T23:08:44.756Z,1008.41
2022-09-01T23:13:48.894Z,1008.35
2022-09-01T23:18:53.086Z,1008.32
2022-09-01T23:23:58.703Z,1008.34
2022-09-01T23:29:01.385Z,1008.26
2022-09-01T23:34:05.552Z,1008.21
2022-09-01T23:39:09.693Z,1008.20
2022-09-01T23:44:13.901Z,1008.19
2022-09-01T23:49:18.073Z,1008.11
2022-09-01T23:54:22.171Z,1008.16
2022-09-01T23:59:27.623Z,1008.12
